Aviation Digital Data Service (ADDS)

Output produced by METARs form (1702 UTC 17 October 2017)
found at http://aviationweather.gov/adds/metars/
 
KJXN 171140Z 1712/1812 21009KT P6SM SKC 
     FM171500 23013G20KT P6SM SCT040 
     FM172200 22009KT P6SM SKC